Time;durP1;ratioP1;P1;durP2;ratioP2;P2;SDS_P1;SDS_P2;PMS_P1;PMS_P2;Temp;Humidity;BMP_temperature;BMP_pressure;BME280_temperature;BME280_humidity;BME280_pressure;Samples;Min_cycle;Max_cycle;Signal;HPM_P1;HPM_P2
2022/05/20 00:00:05;;;;;;;7.38;4.80;;;;;;;21.74;75.72;99994.25;341399;28;1662;-69
2022/05/20 00:00:18;;;;;;;7.60;5.00;;;;;;;21.73;75.20;99995.22;340955;28;1055;-69
2022/05/20 00:00:30;;;;;;;7.57;5.00;;;;;;;21.73;75.36;99997.84;340894;28;1773;-69
2022/05/20 00:00:44;;;;;;;7.32;5.00;;;;;;;21.73;75.55;99995.22;342118;28;1805;-68
2022/05/20 00:00:56;;;;;;;7.07;5.10;;;;;;;21.72;75.56;99989.09;342304;28;1007;-69
2022/05/20 00:01:12;;;;;;;7.07;5.13;;;;;;;21.71;75.20;99994.47;342353;28;1172;-69
2022/05/20 00:01:24;;;;;;;6.15;4.78;;;;;;;21.68;75.11;99992.06;341108;28;1740;-69
2022/05/20 00:01:36;;;;;;;6.70;4.90;;;;;;;21.70;75.23;99992.81;342235;28;1799;-69
2022/05/20 00:01:51;;;;;;;7.63;5.13;;;;;;;21.69;75.25;99991.09;340908;29;1046;-69
2022/05/20 00:02:03;;;;;;;7.75;4.93;;;;;;;21.68;75.24;99994.72;341521;28;1684;-69
2022/05/20 00:02:16;;;;;;;7.68;4.93;;;;;;;21.67;75.28;99991.25;341871;28;1012;-69
2022/05/20 00:02:28;;;;;;;7.65;5.15;;;;;;;21.65;75.21;99989.63;341056;28;1794;-69
2022/05/20 00:02:40;;;;;;;7.13;5.00;;;;;;;21.65;75.26;99989.63;341877;28;1886;-69
2022/05/20 00:02:53;;;;;;;7.25;4.72;;;;;;;21.64;75.34;99987.97;341685;28;1053;-69
2022/05/20 00:03:06;;;;;;;7.65;4.70;;;;;;;21.66;75.15;99986.06;342019;28;1149;-69
2022/05/20 00:03:18;;;;;;;8.55;4.97;;;;;;;21.67;75.48;99990.38;341651;28;2163;-69
2022/05/20 00:03:31;;;;;;;10.63;5.50;;;;;;;21.67;75.23;99988.59;341697;28;1876;-69
2022/05/20 00:03:44;;;;;;;9.38;5.32;;;;;;;21.67;75.45;99987.72;343130;28;1123;-68
2022/05/20 00:03:58;;;;;;;8.18;5.03;;;;;;;21.68;75.55;99989.44;343537;28;1285;-69
2022/05/20 00:04:10;;;;;;;7.63;4.80;;;;;;;21.70;75.14;99987.50;341622;28;1640;-69
2022/05/20 00:04:22;;;;;;;6.95;5.07;;;;;;;21.70;75.33;99990.16;341474;28;2028;-69
2022/05/20 00:04:34;;;;;;;8.57;5.20;;;;;;;21.67;75.10;99982.44;341010;28;1991;-69
2022/05/20 00:04:46;;;;;;;10.30;5.10;;;;;;;21.69;75.14;99988.47;340617;28;1609;-69
2022/05/20 00:04:59;;;;;;;12.40;5.47;;;;;;;21.69;75.10;99980.53;340736;29;1230;-69
2022/05/20 00:05:15;;;;;;;11.35;5.40;;;;;;;21.70;75.38;99976.94;340793;29;1978;-69
2022/05/20 00:05:28;;;;;;;8.35;5.13;;;;;;;21.69;75.42;99985.81;340710;28;1790;-69
2022/05/20 00:05:40;;;;;;;8.55;4.90;;;;;;;21.69;75.07;99988.47;341033;28;1854;-69
2022/05/20 00:05:52;;;;;;;12.68;5.40;;;;;;;21.68;75.05;99977.03;342230;28;1068;-69
2022/05/20 00:06:04;;;;;;;12.10;5.47;;;;;;;21.68;75.18;99979.69;342886;28;1042;-69
2022/05/20 00:06:17;;;;;;;7.85;5.22;;;;;;;21.67;75.36;99977.13;342358;28;1264;-69
2022/05/20 00:06:31;;;;;;;7.13;4.80;;;;;;;21.67;75.40;99978.00;340798;28;1802;-69
2022/05/20 00:06:43;;;;;;;7.32;4.75;;;;;;;21.67;75.15;99972.72;341452;28;1936;-69
2022/05/20 00:06:55;;;;;;;7.82;4.93;;;;;;;21.68;74.95;99973.56;342020;28;1103;-69
2022/05/20 00:07:09;;;;;;;9.65;5.10;;;;;;;21.68;74.91;99981.50;341595;28;2135;-69
2022/05/20 00:07:21;;;;;;;8.80;5.20;;;;;;;21.69;74.89;99975.22;341604;28;1825;-69
2022/05/20 00:07:35;;;;;;;7.57;5.00;;;;;;;21.68;74.70;99978.84;340969;28;1865;-69
2022/05/20 00:07:47;;;;;;;7.63;4.55;;;;;;;21.67;74.59;99983.31;341586;28;2151;-69
2022/05/20 00:08:00;;;;;;;8.35;4.63;;;;;;;21.68;74.74;99981.50;341061;28;1297;-69
2022/05/20 00:08:12;;;;;;;8.73;4.95;;;;;;;21.68;74.85;99979.69;341118;28;1052;-69
2022/05/20 00:08:24;;;;;;;7.65;4.72;;;;;;;21.68;74.88;99978.84;341055;29;1063;-68
2022/05/20 00:08:36;;;;;;;7.43;4.80;;;;;;;21.67;74.70;99977.13;341645;29;1059;-69
2022/05/20 00:08:48;;;;;;;7.45;4.82;;;;;;;21.67;74.69;99972.72;340997;28;1193;-69
2022/05/20 00:09:00;;;;;;;7.13;4.72;;;;;;;21.69;74.44;99977.88;341581;28;1535;-69
2022/05/20 00:09:12;;;;;;;7.80;4.65;;;;;;;21.69;74.23;99975.22;342181;28;1450;-69
2022/05/20 00:09:24;;;;;;;8.63;4.85;;;;;;;21.64;74.57;99985.31;341954;28;1380;-69
2022/05/20 00:09:37;;;;;;;7.95;4.88;;;;;;;21.67;74.49;99978.00;341196;28;1003;-69
2022/05/20 00:09:49;;;;;;;7.35;4.65;;;;;;;21.67;74.60;99978.00;340806;28;1834;-68
2022/05/20 00:10:01;;;;;;;6.72;4.53;;;;;;;21.66;74.79;99980.75;341069;28;1211;-69
2022/05/20 00:10:15;;;;;;;6.40;4.60;;;;;;;21.64;74.68;99980.03;341091;28;1060;-69
2022/05/20 00:10:27;;;;;;;7.45;4.60;;;;;;;21.67;74.80;99982.44;340980;28;2002;-69
2022/05/20 00:10:39;;;;;;;7.22;4.65;;;;;;;21.64;74.98;99972.09;341096;28;1844;-69
2022/05/20 00:10:53;;;;;;;6.55;4.65;;;;;;;21.65;75.03;99973.75;341696;28;1672;-69
2022/05/20 00:11:06;;;;;;;6.82;5.05;;;;;;;21.64;74.60;99980.03;341266;28;1910;-68
2022/05/20 00:11:18;;;;;;;7.25;5.40;;;;;;;21.62;74.94;99972.19;342960;28;1991;-69
2022/05/20 00:11:30;;;;;;;7.82;5.43;;;;;;;21.64;74.75;99978.22;342048;28;1300;-69
2022/05/20 00:11:42;;;;;;;7.28;5.13;;;;;;;21.65;74.71;99981.69;341470;28;1078;-69
2022/05/20 00:11:54;;;;;;;7.00;4.82;;;;;;;21.63;74.83;99973.91;340698;28;1783;-69
2022/05/20 00:12:07;;;;;;;7.18;4.65;;;;;;;21.66;74.87;99980.75;341700;28;1092;-69
2022/05/20 00:12:20;;;;;;;8.10;4.63;;;;;;;21.64;74.58;99977.38;340645;29;1311;-69
2022/05/20 00:12:32;;;;;;;8.73;4.93;;;;;;;21.63;74.83;99984.47;341477;28;1740;-68
2022/05/20 00:12:45;;;;;;;11.45;4.97;;;;;;;21.64;74.38;99972.09;341430;28;1039;-69
2022/05/20 00:12:59;;;;;;;10.63;4.60;;;;;;;21.65;74.35;99973.75;341843;28;1161;-68
2022/05/20 00:13:11;;;;;;;8.50;4.43;;;;;;;21.64;74.60;99977.38;341694;28;1142;-69
2022/05/20 00:13:25;;;;;;;8.82;4.70;;;;;;;21.64;74.51;99978.22;341076;28;1853;-68
2022/05/20 00:13:37;;;;;;;8.32;4.88;;;;;;;21.63;74.44;99975.69;341203;28;1722;-69
2022/05/20 00:13:49;;;;;;;8.10;4.80;;;;;;;21.64;74.47;99978.22;341199;29;1072;-69
2022/05/20 00:14:01;;;;;;;9.07;4.82;;;;;;;21.64;74.32;99980.03;340638;28;1869;-69
2022/05/20 00:14:14;;;;;;;10.23;5.07;;;;;;;21.65;74.12;99973.75;340633;29;1035;-69
2022/05/20 00:14:26;;;;;;;11.00;4.90;;;;;;;21.65;74.40;99979.94;340539;28;1751;-69
2022/05/20 00:14:38;;;;;;;10.07;4.93;;;;;;;21.65;74.61;99984.34;341914;28;1508;-69
2022/05/20 00:14:50;;;;;;;8.25;5.30;;;;;;;21.62;74.35;99979.31;341878;28;1095;-69
2022/05/20 00:15:04;;;;;;;8.10;5.40;;;;;;;21.60;74.40;99981.22;342114;28;1052;-69
2022/05/20 00:15:24;;;;;;;7.93;4.70;;;;;;;21.60;74.02;99975.91;341927;28;1091;-69
2022/05/20 00:15:36;;;;;;;9.60;4.22;;;;;;;21.60;73.98;99981.22;341988;28;1803;-69
2022/05/20 00:15:49;;;;;;;7.95;4.28;;;;;;;21.58;74.44;99977.84;340871;29;1100;-69
2022/05/20 00:16:01;;;;;;;6.10;4.28;;;;;;;21.54;74.61;99982.50;340754;29;1141;-69
2022/05/20 00:16:14;;;;;;;7.15;4.22;;;;;;;21.54;75.07;99983.34;340824;29;1081;-69
2022/05/20 00:16:26;;;;;;;7.03;4.20;;;;;;;21.55;74.66;99978.91;341184;28;1814;-69
2022/05/20 00:16:38;;;;;;;7.80;4.30;;;;;;;21.56;74.65;99979.75;341924;28;1752;-69
2022/05/20 00:16:51;;;;;;;7.22;4.50;;;;;;;21.54;74.33;99978.03;340508;29;1919;-69
2022/05/20 00:17:05;;;;;;;8.68;4.63;;;;;;;21.56;74.43;99980.59;340203;29;1855;-69
2022/05/20 00:17:17;;;;;;;8.38;4.50;;;;;;;21.59;74.06;99984.81;340493;29;1313;-69
2022/05/20 00:17:29;;;;;;;8.80;4.53;;;;;;;21.58;74.00;99983.13;340165;29;1736;-69
2022/05/20 00:17:41;;;;;;;8.20;4.40;;;;;;;21.59;73.90;99982.16;340505;29;1996;-69
2022/05/20 00:17:54;;;;;;;8.70;4.38;;;;;;;21.58;73.76;99981.31;341681;28;1140;-69
2022/05/20 00:18:06;;;;;;;8.02;4.35;;;;;;;21.58;73.77;99983.13;340999;28;1583;-69
2022/05/20 00:18:18;;;;;;;6.45;4.22;;;;;;;21.60;73.59;99981.22;340863;29;1231;-69
2022/05/20 00:18:30;;;;;;;6.55;4.10;;;;;;;21.60;73.30;99973.28;340490;28;1886;-69
2022/05/20 00:18:42;;;;;;;6.85;4.28;;;;;;;21.62;73.43;99988.06;340702;28;1748;-69
2022/05/20 00:18:55;;;;;;;7.30;4.50;;;;;;;21.60;73.04;99983.84;340766;29;1038;-69
2022/05/20 00:19:08;;;;;;;8.05;4.50;;;;;;;21.59;73.32;99976.88;341659;28;1146;-69
2022/05/20 00:19:25;;;;;;;8.82;4.60;;;;;;;21.60;73.57;99981.22;340265;28;1877;-69
2022/05/20 00:19:38;;;;;;;7.20;4.53;;;;;;;21.57;73.73;99986.72;341332;28;1560;-69
2022/05/20 00:19:50;;;;;;;6.40;4.57;;;;;;;21.56;73.69;99982.41;341068;28;1011;-69
2022/05/20 00:20:05;;;;;;;6.75;4.60;;;;;;;21.57;73.80;99981.41;340672;28;1537;-69
2022/05/20 00:20:19;;;;;;;10.10;4.55;;;;;;;21.54;73.68;99975.41;340955;28;1290;-69
2022/05/20 00:20:31;;;;;;;10.65;4.55;;;;;;;21.56;73.72;99977.09;341495;28;1615;-69
2022/05/20 00:20:44;;;;;;;10.55;4.55;;;;;;;21.56;73.44;99979.75;342165;28;1932;-69
2022/05/20 00:20:59;;;;;;;9.23;4.50;;;;;;;21.55;73.47;99981.56;342419;28;1072;-69
2022/05/20 00:21:11;;;;;;;9.68;4.70;;;;;;;21.56;73.38;99979.75;342333;28;1213;-69
2022/05/20 00:21:22;;;;;;;10.38;5.05;;;;;;;21.56;73.17;99979.75;341517;28;1754;-69
2022/05/20 00:21:35;;;;;;;11.38;5.00;;;;;;;21.53;73.21;99979.03;341038;28;1879;-69
2022/05/20 00:21:47;;;;;;;11.50;5.15;;;;;;;21.54;73.45;99972.75;341487;28;2186;-69
2022/05/20 00:21:59;;;;;;;10.63;4.78;;;;;;;21.53;73.16;99976.38;341160;28;1875;-68
2022/05/20 00:22:11;;;;;;;9.20;4.32;;;;;;;21.53;73.12;99976.38;341022;28;1111;-68
2022/05/20 00:22:23;;;;;;;7.90;4.20;;;;;;;21.54;72.87;99977.22;340748;28;1735;-68
2022/05/20 00:22:35;;;;;;;7.63;4.30;;;;;;;21.53;73.18;99979.03;341959;28;1360;-69
2022/05/20 00:22:48;;;;;;;7.43;4.25;;;;;;;21.54;73.22;99977.22;341781;28;1979;-69
2022/05/20 00:23:00;;;;;;;5.60;4.28;;;;;;;21.53;73.25;99984.31;341056;28;1224;-69
2022/05/20 00:23:12;;;;;;;6.90;4.65;;;;;;;21.53;73.43;99979.03;340895;28;1108;-69
2022/05/20 00:23:25;;;;;;;8.55;4.72;;;;;;;21.54;73.20;99985.16;340317;28;1968;-68
2022/05/20 00:23:37;;;;;;;8.63;4.60;;;;;;;21.52;73.47;99979.97;341384;28;1866;-68
2022/05/20 00:23:49;;;;;;;8.68;4.40;;;;;;;21.51;73.40;99973.00;341017;28;1059;-69
2022/05/20 00:24:02;;;;;;;7.72;4.43;;;;;;;21.51;73.35;99980.94;340827;28;1181;-69
2022/05/20 00:24:14;;;;;;;7.05;4.22;;;;;;;21.52;73.12;99974.66;341621;28;1253;-69
2022/05/20 00:24:27;;;;;;;6.38;4.30;;;;;;;21.51;73.44;99986.22;340530;28;1804;-69
2022/05/20 00:25:45;;;;;;;5.57;4.50;;;;;;;21.49;73.78;99980.19;341636;28;1814;-69
2022/05/20 00:25:47;;;;;;;8.98;4.68;;;;;;;21.44;74.94;99979.69;342500;28;1025;-69
2022/05/20 00:26:00;;;;;;;8.68;4.43;;;;;;;21.44;74.43;99977.03;342229;28;1011;-69
2022/05/20 00:26:12;;;;;;;7.57;4.50;;;;;;;21.43;74.34;99975.34;342379;28;1243;-69
2022/05/20 00:26:24;;;;;;;7.22;4.47;;;;;;;21.42;74.02;99978.91;341676;28;1828;-69
2022/05/20 00:26:36;;;;;;;6.72;4.43;;;;;;;21.42;74.37;99978.91;341027;28;1695;-69
2022/05/20 00:26:50;;;;;;;5.97;4.00;;;;;;;21.41;74.11;99977.25;341437;28;1898;-69
2022/05/20 00:27:03;;;;;;;6.22;4.05;;;;;;;21.42;74.45;99976.28;342436;28;1907;-69
2022/05/20 00:27:15;;;;;;;8.00;4.65;;;;;;;21.41;74.08;99977.25;342299;28;1058;-69
2022/05/20 00:27:27;;;;;;;8.63;5.00;;;;;;;21.43;73.97;99979.78;341210;28;1704;-69
2022/05/20 00:27:39;;;;;;;7.95;4.90;;;;;;;21.42;74.35;99980.72;341958;28;1642;-69
2022/05/20 00:27:51;;;;;;;6.63;4.50;;;;;;;21.42;73.97;99978.91;342353;28;1172;-69
2022/05/20 00:28:03;;;;;;;7.45;4.60;;;;;;;21.41;74.29;99979.88;342144;28;1094;-69
2022/05/20 00:28:24;;;;;;;8.52;4.57;;;;;;;21.40;73.76;99975.53;342349;28;1276;-69
2022/05/20 00:28:36;;;;;;;10.15;4.35;;;;;;;21.40;73.71;99975.53;340989;28;1656;-68
2022/05/20 00:28:48;;;;;;;11.02;4.60;;;;;;;21.41;73.96;99979.88;343717;28;1055;-68
2022/05/20 00:29:00;;;;;;;10.40;4.70;;;;;;;21.39;73.97;99973.88;342918;28;1216;-68
2022/05/20 00:29:12;;;;;;;10.88;4.78;;;;;;;21.39;74.21;99973.88;341502;28;2122;-69
2022/05/20 00:29:24;;;;;;;10.70;4.75;;;;;;;21.39;74.33;99973.00;341733;28;1839;-69
2022/05/20 00:29:36;;;;;;;8.75;4.60;;;;;;;21.41;74.21;99977.25;342560;28;1687;-68
2022/05/20 00:29:48;;;;;;;8.77;4.43;;;;;;;21.42;74.13;99983.38;342205;28;1174;-69
2022/05/20 00:30:00;;;;;;;7.28;4.22;;;;;;;21.41;74.12;99981.66;341448;28;1593;-69
2022/05/20 00:30:13;;;;;;;8.93;4.50;;;;;;;21.40;73.88;99975.53;342110;28;1099;-69
2022/05/20 00:30:25;;;;;;;7.82;4.55;;;;;;;21.41;74.07;99977.25;341237;28;1865;-68
2022/05/20 00:30:37;;;;;;;7.70;4.35;;;;;;;21.41;74.11;99977.25;341061;28;1675;-69
2022/05/20 00:31:04;;;;;;;9.13;4.13;;;;;;;21.41;73.79;99979.88;341062;28;1192;-68
2022/05/20 00:31:17;;;;;;;9.23;4.40;;;;;;;21.41;73.93;99982.53;340906;28;1076;-68
2022/05/20 00:31:29;;;;;;;11.27;4.78;;;;;;;21.41;74.06;99979.88;340434;28;1746;-68
2022/05/20 00:31:41;;;;;;;10.52;4.82;;;;;;;21.40;74.11;99980.81;342058;28;1769;-68
2022/05/20 00:31:55;;;;;;;7.97;4.70;;;;;;;21.38;73.75;99977.44;342060;28;1066;-68
2022/05/20 00:32:07;;;;;;;14.48;4.60;;;;;;;21.40;73.83;99978.19;342813;28;1402;-68
2022/05/20 00:32:19;;;;;;;13.77;4.55;;;;;;;21.40;73.91;99974.69;341600;28;1764;-68
2022/05/20 00:32:31;;;;;;;8.95;4.40;;;;;;;21.40;73.57;99980.81;341534;28;1770;-68
2022/05/20 00:32:43;;;;;;;7.50;4.45;;;;;;;21.40;73.28;99975.53;342206;28;1818;-68
2022/05/20 00:32:55;;;;;;;7.38;4.40;;;;;;;21.39;73.69;99980.94;341880;28;1787;-69
2022/05/20 00:33:07;;;;;;;9.32;4.65;;;;;;;21.39;74.22;99979.16;340877;28;2075;-69
2022/05/20 00:33:20;;;;;;;10.35;4.97;;;;;;;21.39;73.84;99976.50;340673;29;1080;-69
2022/05/20 00:33:34;;;;;;;9.32;5.00;;;;;;;21.40;73.61;99980.00;341230;28;2186;-69
2022/05/20 00:33:46;;;;;;;9.23;4.50;;;;;;;21.41;73.57;99981.66;341666;28;1023;-69
2022/05/20 00:33:58;;;;;;;8.48;4.30;;;;;;;21.41;73.80;99984.31;341898;28;1019;-69
2022/05/20 00:34:11;;;;;;;10.00;4.50;;;;;;;21.40;73.58;99983.47;342080;28;1043;-69
2022/05/20 00:34:23;;;;;;;10.10;4.93;;;;;;;21.40;73.64;99980.81;341101;28;1832;-69
2022/05/20 00:34:35;;;;;;;8.20;4.70;;;;;;;21.41;73.51;99984.31;340515;29;1754;-69
2022/05/20 00:34:47;;;;;;;8.18;4.88;;;;;;;21.39;73.61;99979.16;341336;29;1048;-69
2022/05/20 00:34:59;;;;;;;10.63;5.00;;;;;;;21.40;73.81;99985.28;340508;29;1910;-69
2022/05/20 00:35:13;;;;;;;10.13;4.78;;;;;;;21.38;74.13;99982.75;340147;29;1099;-69
2022/05/20 00:35:26;;;;;;;7.85;4.60;;;;;;;21.38;73.99;99982.75;340204;28;1912;-69
2022/05/20 00:35:40;;;;;;;8.55;4.65;;;;;;;21.39;73.75;99980.94;342569;28;1415;-69
2022/05/20 00:35:51;;;;;;;8.85;4.72;;;;;;;21.37;73.77;99986.34;341918;28;1088;-69
2022/05/20 00:36:05;;;;;;;8.57;4.68;;;;;;;21.35;73.50;99977.69;341726;28;1142;-69
2022/05/20 00:36:18;;;;;;;8.85;4.60;;;;;;;21.37;73.48;99975.78;341940;28;1207;-69
2022/05/20 00:36:30;;;;;;;7.75;4.70;;;;;;;21.39;73.51;99976.50;341122;28;1702;-69
2022/05/20 00:36:42;;;;;;;7.10;4.72;;;;;;;21.38;73.75;99982.75;342035;28;1945;-69
2022/05/20 00:36:54;;;;;;;7.28;4.60;;;;;;;21.37;73.48;99978.41;340889;28;1843;-69
2022/05/20 00:37:06;;;;;;;6.65;4.32;;;;;;;21.38;73.49;99974.81;340820;28;1058;-69
2022/05/20 00:37:18;;;;;;;6.30;4.40;;;;;;;21.35;73.30;99977.69;341296;28;1126;-69
2022/05/20 00:37:30;;;;;;;7.90;4.68;;;;;;;21.34;73.65;99976.81;341342;28;1704;-69
2022/05/20 00:37:43;;;;;;;9.20;4.93;;;;;;;21.34;73.75;99978.63;342152;28;1864;-69
2022/05/20 00:37:55;;;;;;;9.82;4.78;;;;;;;21.35;73.56;99975.03;342168;28;1198;-69
2022/05/20 00:38:07;;;;;;;7.95;4.53;;;;;;;21.34;73.70;99976.81;342044;28;1143;-69
2022/05/20 00:38:20;;;;;;;6.85;4.38;;;;;;;21.34;73.24;99976.81;342124;28;1034;-69
2022/05/20 00:38:33;;;;;;;7.40;4.53;;;;;;;21.35;73.55;99977.69;340626;28;2166;-69
2022/05/20 00:38:46;;;;;;;8.95;4.72;;;;;;;21.35;73.51;99977.69;340942;28;1912;-69
2022/05/20 00:39:00;;;;;;;8.55;4.85;;;;;;;21.36;73.25;99968.78;341479;28;1513;-69
2022/05/20 00:39:12;;;;;;;7.38;4.72;;;;;;;21.36;73.32;99974.06;341965;28;1729;-69
2022/05/20 00:39:24;;;;;;;7.63;4.55;;;;;;;21.37;73.33;99975.78;341861;28;2020;-69
2022/05/20 00:39:36;;;;;;;6.80;4.53;;;;;;;21.38;73.20;99969.50;340807;28;1817;-69
2022/05/20 00:39:48;;;;;;;8.48;4.57;;;;;;;21.39;73.31;99968.56;341875;28;1056;-69
2022/05/20 00:40:00;;;;;;;8.68;4.70;;;;;;;21.40;73.17;99966.75;342654;28;1062;-69
2022/05/20 00:40:15;;;;;;;10.15;4.65;;;;;;;21.39;73.36;99970.34;341794;28;1850;-69
2022/05/20 00:40:28;;;;;;;9.85;4.25;;;;;;;21.39;73.37;99968.56;341246;28;1763;-69
2022/05/20 00:40:41;;;;;;;10.77;4.50;;;;;;;21.41;73.02;99976.38;341644;28;2019;-69
2022/05/20 00:40:55;;;;;;;10.02;4.82;;;;;;;21.41;73.01;99966.66;340657;29;1015;-69
2022/05/20 00:41:09;;;;;;;7.78;4.75;;;;;;;21.42;73.10;99970.97;340827;28;1696;-69
2022/05/20 00:41:21;;;;;;;8.85;4.60;;;;;;;21.44;73.00;99977.03;342884;28;1651;-69
2022/05/20 00:41:33;;;;;;;10.35;4.72;;;;;;;21.43;73.05;99966.56;342013;28;1340;-69
2022/05/20 00:41:45;;;;;;;9.85;4.95;;;;;;;21.44;73.01;99977.03;342110;28;1161;-69
2022/05/20 00:41:57;;;;;;;8.25;4.88;;;;;;;21.45;73.40;99973.44;342573;28;820;-69
2022/05/20 00:42:12;;;;;;;7.93;4.50;;;;;;;21.44;73.02;99978.84;342336;28;1133;-69
2022/05/20 00:42:25;;;;;;;8.77;4.40;;;;;;;21.43;73.02;99967.44;341374;28;2051;-69
2022/05/20 00:42:38;;;;;;;8.68;4.40;;;;;;;21.42;72.96;99972.78;341413;28;1192;-69
2022/05/20 00:42:50;;;;;;;7.55;4.38;;;;;;;21.42;73.00;99967.50;341330;28;1671;-69
2022/05/20 00:43:16;;;;;;;6.95;4.47;;;;;;;21.39;73.02;99968.56;342372;28;1035;-69
2022/05/20 00:43:37;;;;;;;6.30;4.55;;;;;;;21.39;73.02;99973.88;341031;28;1782;-69
2022/05/20 00:43:50;;;;;;;7.13;4.38;;;;;;;21.38;72.90;99966.88;341576;28;1684;-69
2022/05/20 00:44:02;;;;;;;8.50;4.43;;;;;;;21.38;73.27;99972.16;341626;28;1164;-69
2022/05/20 00:44:14;;;;;;;8.40;4.63;;;;;;;21.38;73.14;99972.16;342084;28;1004;-69
2022/05/20 00:44:28;;;;;;;8.35;4.60;;;;;;;21.39;73.18;99975.63;341144;28;1693;-69
2022/05/20 00:44:41;;;;;;;8.15;4.55;;;;;;;21.39;72.96;99968.56;341847;28;2013;-69
2022/05/20 00:44:53;;;;;;;10.75;4.40;;;;;;;21.39;72.73;99976.50;341315;28;1788;-69
2022/05/20 00:45:06;;;;;;;10.73;4.55;;;;;;;21.39;72.73;99973.88;341378;28;1060;-69
2022/05/20 00:45:19;;;;;;;6.65;4.68;;;;;;;21.37;72.69;99970.50;340861;29;1116;-69
2022/05/20 00:45:30;;;;;;;6.15;4.88;;;;;;;21.37;73.08;99973.13;340391;28;1947;-69
2022/05/20 00:45:44;;;;;;;6.03;4.75;;;;;;;21.37;72.98;99969.63;342040;28;1518;-69
2022/05/20 00:46:11;;;;;;;5.53;4.35;;;;;;;21.35;73.09;99977.69;340359;29;1077;-69
2022/05/20 00:46:26;;;;;;;6.97;4.57;;;;;;;21.35;73.11;99967.94;340794;28;1711;-69
2022/05/20 00:46:38;;;;;;;7.88;4.68;;;;;;;21.35;73.32;99973.22;342141;28;1629;-69
2022/05/20 00:46:50;;;;;;;8.07;4.38;;;;;;;21.37;72.96;99970.50;340936;29;1019;-69
2022/05/20 00:47:03;;;;;;;8.00;4.70;;;;;;;21.38;72.89;99971.31;340701;29;1028;-69
2022/05/20 00:47:15;;;;;;;8.63;4.68;;;;;;;21.38;73.01;99971.31;339493;29;1171;-69
2022/05/20 00:47:27;;;;;;;8.70;4.70;;;;;;;21.35;73.35;99967.94;338956;29;2215;-69
2022/05/20 00:47:40;;;;;;;7.47;4.50;;;;;;;21.34;73.37;99965.41;340167;29;1866;-69
2022/05/20 00:47:53;;;;;;;8.50;4.70;;;;;;;21.34;73.39;99966.25;339279;29;1878;-69
2022/05/20 00:48:05;;;;;;;9.65;4.80;;;;;;;21.34;73.80;99970.69;338636;29;1913;-69
2022/05/20 00:48:17;;;;;;;7.65;4.60;;;;;;;21.33;73.69;99969.84;339366;29;1400;-69
2022/05/20 00:48:30;;;;;;;7.95;4.57;;;;;;;21.32;73.93;99972.59;338199;29;1722;-69
2022/05/20 00:48:43;;;;;;;8.88;4.65;;;;;;;21.30;73.84;99963.94;338854;29;1992;-69
2022/05/20 00:49:00;;;;;;;9.27;4.72;;;;;;;21.26;73.90;99968.59;339600;29;1529;-69
2022/05/20 00:49:15;;;;;;;7.72;4.65;;;;;;;21.28;73.61;99971.13;339032;29;1833;-69
2022/05/20 00:49:29;;;;;;;6.18;4.50;;;;;;;21.27;73.45;99964.16;340632;28;1874;-69
2022/05/20 00:49:46;;;;;;;6.25;4.32;;;;;;;21.26;73.33;99973.03;341983;28;1628;-69
2022/05/20 00:50:02;;;;;;;9.85;4.53;;;;;;;21.24;73.71;99964.38;342026;28;1039;-69
2022/05/20 00:50:16;;;;;;;8.30;4.50;;;;;;;21.23;73.46;99968.84;339849;29;2054;-69
2022/05/20 00:50:28;;;;;;;5.75;4.38;;;;;;;21.23;73.33;99967.97;340949;28;1392;-69
2022/05/20 00:50:46;;;;;;;6.25;4.45;;;;;;;21.23;73.31;99968.84;340097;28;2003;-69
2022/05/20 00:51:27;;;;;;;5.60;4.22;;;;;;;21.23;73.43;99968.84;340592;29;1040;-69
2022/05/20 00:51:44;;;;;;;6.05;4.43;;;;;;;21.24;73.64;99969.69;339708;28;1785;-69
2022/05/20 00:51:58;;;;;;;7.43;4.32;;;;;;;21.25;73.25;99974.00;340685;29;1016;-69
2022/05/20 00:52:13;;;;;;;8.60;4.43;;;;;;;21.25;73.34;99971.34;340627;29;1108;-69
2022/05/20 00:52:28;;;;;;;7.65;4.10;;;;;;;21.28;73.30;99968.50;340139;28;1799;-69
2022/05/20 00:52:45;;;;;;;6.80;4.22;;;;;;;21.27;73.13;99969.44;341488;28;1483;-69
2022/05/20 00:52:57;;;;;;;7.38;4.60;;;;;;;21.26;73.32;99973.03;342855;28;1075;-69
2022/05/20 00:53:12;;;;;;;7.95;4.60;;;;;;;21.25;73.30;99968.69;342224;28;1819;-69
2022/05/20 00:53:28;;;;;;;7.68;4.32;;;;;;;21.26;73.24;99970.41;342032;28;1015;-69
2022/05/20 00:53:48;;;;;;;6.85;4.40;;;;;;;21.25;73.26;99971.34;340862;28;1075;-69
2022/05/20 00:54:06;;;;;;;6.95;4.30;;;;;;;21.26;73.26;99967.75;341010;28;1028;-69
2022/05/20 00:54:23;;;;;;;7.85;4.47;;;;;;;21.24;73.30;99974.97;340778;28;1169;-69
2022/05/20 00:54:40;;;;;;;7.95;4.50;;;;;;;21.25;73.04;99960.78;341092;28;1178;-69
2022/05/20 00:54:57;;;;;;;5.63;4.28;;;;;;;21.27;72.88;99964.16;340773;28;1129;-69
2022/05/20 00:55:13;;;;;;;6.05;4.90;;;;;;;21.27;72.92;99964.16;340834;28;1039;-69
2022/05/20 00:55:26;;;;;;;8.00;5.32;;;;;;;21.26;72.95;99962.47;340789;28;1289;-69
2022/05/20 00:55:43;;;;;;;7.82;4.65;;;;;;;21.25;73.08;99966.06;342685;28;1023;-69
2022/05/20 00:55:56;;;;;;;7.38;4.38;;;;;;;21.25;73.26;99960.78;342350;28;1193;-69
2022/05/20 00:56:13;;;;;;;7.68;4.47;;;;;;;21.25;73.20;99958.13;341541;28;2173;-69
2022/05/20 00:56:30;;;;;;;7.47;4.43;;;;;;;21.21;72.71;99960.16;340861;28;1270;-69
2022/05/20 00:56:59;;;;;;;6.72;4.30;;;;;;;21.17;72.97;99965.75;342268;28;984;-69
2022/05/20 00:57:21;;;;;;;7.90;4.40;;;;;;;21.16;73.23;99951.72;342241;28;1079;-69
2022/05/20 00:57:38;;;;;;;8.50;4.60;;;;;;;21.18;72.91;99959.53;342127;28;1357;-69
2022/05/20 00:57:56;;;;;;;7.43;4.53;;;;;;;21.18;72.88;99960.38;342292;28;1015;-69
2022/05/20 00:58:12;;;;;;;7.00;4.18;;;;;;;21.18;73.14;99959.53;341303;28;1115;-69
2022/05/20 00:58:27;;;;;;;6.38;4.05;;;;;;;21.14;73.09;99951.81;340720;28;1988;-69
2022/05/20 00:58:41;;;;;;;6.43;4.05;;;;;;;21.14;73.60;99953.63;341418;28;1748;-69
2022/05/20 00:58:55;;;;;;;9.40;4.20;;;;;;;21.14;73.27;99959.75;342476;28;1527;-69
2022/05/20 00:59:12;;;;;;;9.13;4.20;;;;;;;21.15;72.99;99956.16;342148;28;1633;-69
2022/05/20 00:59:27;;;;;;;6.93;4.15;;;;;;;21.15;73.02;99956.16;341176;28;1104;-69
2022/05/20 00:59:43;;;;;;;6.85;4.45;;;;;;;21.13;73.28;99957.25;341783;28;1786;-69
2022/05/20 01:00:04;;;;;;;6.93;4.35;;;;;;;21.10;73.74;99957.44;341543;28;1840;-69
2022/05/20 01:00:20;;;;;;;7.50;4.53;;;;;;;21.05;73.67;99955.13;341358;28;1340;-69
2022/05/20 01:00:41;;;;;;;8.80;4.85;;;;;;;21.07;73.85;99958.50;341956;28;1234;-69
2022/05/20 01:00:56;;;;;;;5.72;4.03;;;;;;;21.06;74.13;99956.81;342948;28;2191;-69
2022/05/20 01:01:08;;;;;;;6.13;4.05;;;;;;;21.08;73.54;99954.06;342229;28;968;-69
2022/05/20 01:01:21;;;;;;;6.60;4.25;;;;;;;21.06;73.49;99954.16;342259;28;1198;-69
2022/05/20 01:01:34;;;;;;;6.40;4.45;;;;;;;21.02;73.81;99951.88;342247;28;1306;-69
2022/05/20 01:01:49;;;;;;;6.15;4.40;;;;;;;21.01;73.54;99956.31;342757;28;764;-69
2022/05/20 01:02:08;;;;;;;5.97;4.38;;;;;;;21.01;73.32;99951.03;342226;28;956;-69
2022/05/20 01:02:23;;;;;;;6.68;4.45;;;;;;;21.00;73.36;99951.97;342310;28;1057;-69
2022/05/20 01:02:37;;;;;;;6.55;4.32;;;;;;;21.01;73.38;99958.94;340888;29;1180;-69
2022/05/20 01:02:54;;;;;;;6.00;4.35;;;;;;;20.99;73.20;99955.56;341230;28;1330;-69
2022/05/20 01:03:09;;;;;;;5.60;4.25;;;;;;;21.03;73.35;99950.91;342315;28;1083;-69
2022/05/20 01:03:29;;;;;;;9.63;4.30;;;;;;;21.02;73.31;99955.34;342443;28;1027;-69
2022/05/20 01:03:42;;;;;;;8.75;4.22;;;;;;;21.02;73.44;99955.34;342309;28;1193;-69
2022/05/20 01:03:56;;;;;;;8.52;4.47;;;;;;;21.01;73.46;99960.75;342427;28;1023;-69
2022/05/20 01:04:08;;;;;;;7.85;4.43;;;;;;;21.02;73.32;99954.50;342581;28;1102;-69
2022/05/20 01:04:22;;;;;;;7.63;4.25;;;;;;;21.01;73.31;99956.31;342478;28;1047;-69
2022/05/20 01:04:35;;;;;;;7.38;4.40;;;;;;;21.02;73.52;99955.34;341513;28;1796;-69
2022/05/20 01:04:48;;;;;;;7.47;4.38;;;;;;;21.02;73.54;99960.63;342088;28;1808;-69
2022/05/20 01:05:03;;;;;;;7.50;4.28;;;;;;;21.04;73.47;99963.16;342562;28;1063;-69
2022/05/20 01:05:35;;;;;;;6.90;4.38;;;;;;;21.02;73.80;99960.63;341202;28;992;-69
2022/05/20 01:05:49;;;;;;;6.22;4.10;;;;;;;21.03;73.43;99972.91;341305;28;1225;-69
2022/05/20 01:06:01;;;;;;;6.20;4.10;;;;;;;21.02;73.22;99968.56;341725;28;1060;-69
2022/05/20 01:06:13;;;;;;;6.72;4.40;;;;;;;21.00;73.16;99967.81;341070;28;1206;-69
2022/05/20 01:06:26;;;;;;;6.78;4.35;;;;;;;21.01;73.30;99963.41;341096;28;1249;-69
2022/05/20 01:06:38;;;;;;;6.45;3.95;;;;;;;21.00;73.14;99966.97;342475;28;1078;-69